Time;durP1;ratioP1;P1;durP2;ratioP2;P2;SDS_P1;SDS_P2;PMS_P1;PMS_P2;Temp;Humidity;BMP_temperature;BMP_pressure;BME280_temperature;BME280_humidity;BME280_pressure;Samples;Min_cycle;Max_cycle;Signal;HPM_P1;HPM_P2
2022/09/05 00:00:41;;;;;;;4.00;3.60;;;12.30;1.00;;;;;;8318100;28;20224;-69
2022/09/05 00:05:06;;;;;;;3.27;2.97;;;12.20;1.00;;;;;;8359268;28;20269;-68
2022/09/05 00:09:24;;;;;;;3.60;3.30;;;12.00;9.00;;;;;;8344254;28;20300;-68
2022/09/05 00:13:31;;;;;;;3.20;2.83;;;12.00;99.90;;;;;;8344821;28;20211;-69
2022/09/05 00:17:37;;;;;;;3.40;3.10;;;11.90;99.90;;;;;;8344502;28;20181;-69
2022/09/05 00:22:09;;;;;;;4.53;3.30;;;11.80;99.90;;;;;;8344454;28;20197;-68
2022/09/05 00:26:39;;;;;;;3.90;3.50;;;11.80;99.90;;;;;;8343995;28;20208;-69
2022/09/05 00:31:16;;;;;;;4.00;3.60;;;11.70;99.90;;;;;;8340829;28;20613;-69
2022/09/05 00:35:37;;;;;;;4.67;4.17;;;11.70;99.90;;;;;;8346533;28;20196;-70
2022/09/05 00:39:41;;;;;;;3.90;3.43;;;11.60;99.90;;;;;;8340653;28;20200;-69
2022/09/05 00:43:47;;;;;;;4.23;3.43;;;11.50;99.90;;;;;;8343907;28;20192;-69
2022/09/05 00:48:11;;;;;;;3.63;3.33;;;11.40;99.90;;;;;;8343029;28;20263;-68
2022/09/05 00:52:29;;;;;;;3.93;3.17;;;11.30;99.90;;;;;;8352384;28;20217;-67
2022/09/05 00:56:58;;;;;;;3.33;2.97;;;11.30;99.90;;;;;;8344201;28;20202;-68
2022/09/05 01:01:01;;;;;;;3.70;3.30;;;11.20;99.90;;;;;;8346444;28;20204;-68
2022/09/05 01:05:08;;;;;;;3.97;3.00;;;11.10;99.90;;;;;;8348456;28;20193;-68
2022/09/05 01:09:44;;;;;;;3.20;2.90;;;11.00;99.90;;;;;;8350555;28;20177;-68
2022/09/05 01:14:00;;;;;;;3.20;2.90;;;11.00;99.90;;;;;;8351116;28;20297;-68
2022/09/05 01:18:29;;;;;;;3.10;2.80;;;10.90;99.90;;;;;;8345783;28;20196;-67
2022/09/05 01:22:55;;;;;;;2.90;2.70;;;10.90;99.90;;;;;;8363645;28;20206;-68
2022/09/05 01:26:59;;;;;;;2.70;2.50;;;10.80;99.90;;;;;;8356246;28;20210;-68
2022/09/05 01:31:08;;;;;;;3.20;2.70;;;10.80;99.90;;;;;;8346487;28;20262;-69
2022/09/05 01:35:43;;;;;;;6.60;4.33;;;10.70;99.90;;;;;;8349881;28;20221;-68
2022/09/05 01:40:18;;;;;;;3.93;3.53;;;10.70;99.90;;;;;;8347744;28;20215;-68
2022/09/05 01:44:34;;;;;;;3.67;3.20;;;10.70;99.90;;;;;;8360765;28;20190;-68
2022/09/05 01:49:00;;;;;;;3.53;3.17;;;10.60;99.90;;;;;;8338566;28;20213;-68
2022/09/05 01:53:43;;;;;;;4.07;3.10;;;10.50;99.90;;;;;;8352951;28;20185;-69
2022/09/05 01:58:01;;;;;;;3.50;3.20;;;10.40;99.90;;;;;;8383583;28;20214;-68
2022/09/05 02:02:29;;;;;;;3.50;3.20;;;10.30;99.90;;;;;;8361092;28;20194;-68
2022/09/05 02:06:33;;;;;;;2.90;2.60;;;10.30;99.90;;;;;;8345602;28;20289;-68
2022/09/05 02:10:58;;;;;;;3.17;2.87;;;10.30;99.90;;;;;;8345059;28;20476;-68
2022/09/05 02:15:14;;;;;;;4.93;4.13;;;10.30;99.90;;;;;;8358355;28;20178;-69
2022/09/05 02:19:29;;;;;;;5.27;4.53;;;10.20;99.90;;;;;;8351028;28;20329;-68
2022/09/05 02:23:41;;;;;;;4.23;3.83;;;10.30;99.90;;;;;;8344497;28;20193;-69
2022/09/05 02:28:05;;;;;;;3.60;3.30;;;10.30;99.90;;;;;;8345168;28;20244;-69
2022/09/05 02:32:29;;;;;;;3.37;3.07;;;10.20;99.90;;;;;;8346678;28;20186;-68
2022/09/05 02:36:45;;;;;;;3.77;3.10;;;10.10;99.90;;;;;;8345822;28;20194;-68
2022/09/05 02:41:02;;;;;;;3.30;3.00;;;10.00;99.90;;;;;;8380622;28;20200;-67
2022/09/05 02:45:26;;;;;;;3.87;3.53;;;9.90;99.90;;;;;;8353472;28;20189;-67
2022/09/05 02:49:49;;;;;;;4.27;3.80;;;9.90;99.90;;;;;;8347016;28;20213;-68
2022/09/05 02:54:15;;;;;;;3.90;3.50;;;9.80;99.90;;;;;;8352038;28;20186;-68
2022/09/05 02:58:22;;;;;;;3.40;3.10;;;9.80;99.90;;;;;;8345071;28;20195;-68
2022/09/05 03:02:34;;;;;;;3.43;3.13;;;9.80;99.90;;;;;;8343882;28;20190;-69
2022/09/05 03:06:45;;;;;;;3.93;3.53;;;9.70;99.90;;;;;;8345763;28;20219;-67
2022/09/05 03:11:04;;;;;;;3.43;3.13;;;9.70;99.90;;;;;;8347194;28;20186;-68
2022/09/05 03:15:39;;;;;;;3.83;3.47;;;9.70;99.90;;;;;;8361923;28;20186;-68
2022/09/05 03:19:51;;;;;;;3.57;3.27;;;9.70;99.90;;;;;;8343418;28;20229;-67
2022/09/05 03:24:16;;;;;;;4.33;3.50;;;9.70;99.90;;;;;;8334499;28;20186;-67
2022/09/05 03:28:36;;;;;;;3.97;3.57;;;9.70;99.90;;;;;;8344182;28;20240;-67
2022/09/05 03:32:58;;;;;;;3.70;3.40;;;9.70;99.90;;;;;;8342681;28;20206;-67
2022/09/05 03:37:19;;;;;;;5.33;3.93;;;9.70;99.90;;;;;;8359368;28;20190;-68
2022/09/05 03:41:44;;;;;;;5.00;4.23;;;9.70;99.90;;;;;;8360632;28;20210;-68
2022/09/05 03:45:57;;;;;;;4.57;4.17;;;9.80;99.90;;;;;;8342714;28;20202;-68
2022/09/05 03:50:32;;;;;;;4.30;3.87;;;9.80;99.90;;;;;;8361696;28;20185;-68
2022/09/05 03:55:05;;;;;;;6.37;3.43;;;9.70;99.90;;;;;;8359920;28;20182;-68
2022/09/05 03:59:34;;;;;;;4.77;3.90;;;9.70;99.90;;;;;;8344229;28;20182;-67
2022/09/05 04:03:50;;;;;;;4.50;4.10;;;9.60;99.90;;;;;;8344994;28;20221;-70
2022/09/05 04:07:59;;;;;;;4.50;4.10;;;9.60;99.90;;;;;;8361328;28;20240;-68
2022/09/05 04:12:12;;;;;;;4.63;4.13;;;9.60;99.90;;;;;;8378138;28;20206;-66
2022/09/05 04:16:29;;;;;;;4.33;3.93;;;9.60;99.90;;;;;;8345994;28;20178;-71
2022/09/05 04:21:07;;;;;;;5.23;4.73;;;9.60;99.90;;;;;;8345308;28;20198;-68
2022/09/05 04:25:43;;;;;;;4.40;4.00;;;9.60;99.90;;;;;;8342702;28;20200;-69
2022/09/05 04:29:43;;;;;;;5.20;4.70;;;9.60;99.90;;;;;;8343113;28;20503;-69
2022/09/05 04:33:56;;;;;;;5.13;4.63;;;9.60;99.90;;;;;;8347186;28;20188;-69
2022/09/05 04:38:04;;;;;;;5.10;4.60;;;9.60;99.90;;;;;;8352223;28;20197;-68
2022/09/05 04:42:13;;;;;;;4.77;4.23;;;9.70;99.90;;;;;;8365923;28;20271;-68
2022/09/05 04:46:39;;;;;;;5.97;4.60;;;9.80;99.90;;;;;;8350776;28;20274;-69
2022/09/05 04:51:06;;;;;;;5.50;4.77;;;9.80;99.90;;;;;;8363598;28;20255;-69
2022/09/05 04:55:22;;;;;;;5.23;4.47;;;9.90;99.90;;;;;;8351203;28;20190;-67
2022/09/05 04:59:33;;;;;;;5.03;4.53;;;10.00;99.90;;;;;;8349757;28;20225;-69
2022/09/05 05:03:35;;;;;;;5.50;5.00;;;10.10;99.90;;;;;;8353108;28;20186;-68
2022/09/05 05:07:52;;;;;;;5.03;4.53;;;10.20;99.90;;;;;;8363845;28;20327;-68
2022/09/05 05:12:17;;;;;;;5.43;4.50;;;10.40;99.90;;;;;;8345717;28;20473;-68
2022/09/05 05:16:23;;;;;;;4.53;4.13;;;10.50;99.90;;;;;;8330574;28;20199;-69
2022/09/05 05:20:37;;;;;;;5.87;5.20;;;10.70;99.90;;;;;;8359482;28;20337;-68
2022/09/05 05:24:47;;;;;;;5.97;5.37;;;10.80;99.90;;;;;;8347366;28;20195;-69
2022/09/05 05:29:10;;;;;;;5.33;4.93;;;11.00;99.90;;;;;;8348892;28;20317;-68
2022/09/05 05:33:38;;;;;;;7.60;5.07;;;11.20;99.90;;;;;;8375803;28;20199;-68
2022/09/05 05:37:51;;;;;;;6.00;5.40;;;11.50;99.90;;;;;;8343048;28;20201;-68
2022/09/05 05:41:56;;;;;;;6.00;4.83;;;11.70;99.90;;;;;;8347839;28;20275;-68
2022/09/05 05:46:01;;;;;;;6.03;5.43;;;11.80;99.90;;;;;;8349228;28;20252;-69
2022/09/05 05:50:12;;;;;;;8.77;7.97;;;12.00;99.90;;;;;;8349686;28;20192;-67
2022/09/05 05:54:21;;;;;;;10.57;9.47;;;12.30;99.90;;;;;;8349268;28;20205;-69
2022/09/05 05:58:59;;;;;;;10.93;9.23;;;12.60;99.90;;;;;;8349228;28;20220;-69
2022/09/05 06:03:19;;;;;;;9.27;8.37;;;13.00;99.90;;;;;;8334678;28;20529;-68
2022/09/05 06:08:06;;;;;;;9.03;8.23;;;13.40;99.90;;;;;;8342180;28;20217;-69
2022/09/05 06:12:31;;;;;;;9.00;7.90;;;13.70;99.90;;;;;;8343094;28;20229;-68
2022/09/05 06:16:47;;;;;;;8.37;7.10;;;13.90;99.90;;;;;;8354962;28;20290;-69
2022/09/05 06:21:33;;;;;;;7.87;7.00;;;14.10;99.90;;;;;;8364219;28;20202;-68
2022/09/05 06:26:06;;;;;;;10.30;6.73;;;14.20;99.90;;;;;;8345467;28;20210;-68
2022/09/05 06:30:09;;;;;;;9.00;6.97;;;14.40;99.90;;;;;;8331457;28;20229;-69
2022/09/05 06:34:52;;;;;;;7.20;6.50;;;14.60;99.90;;;;;;8346618;28;20189;-69
2022/09/05 06:40:06;;;;;;;7.30;6.53;;;14.80;99.90;;;;;;8340881;28;20254;-69
2022/09/05 06:44:44;;;;;;;8.67;7.17;;;15.20;99.90;;;;;;8223582;28;20192;-68
2022/09/05 06:49:11;;;;;;;8.27;6.00;;;15.60;99.90;;;;;;8314014;28;20252;-67
2022/09/05 06:53:48;;;;;;;7.37;6.37;;;16.00;99.90;;;;;;8345346;28;20213;-66
2022/09/05 06:58:23;;;;;;;10.53;6.53;;;16.20;1.00;;;;;;8347453;28;20198;-69
2022/09/05 07:02:43;;;;;;;8.20;5.83;;;16.40;1.00;;;;;;8359441;28;20420;-71
2022/09/05 07:07:05;;;;;;;8.23;6.40;;;16.60;99.90;;;;;;8346543;28;20241;-68
2022/09/05 07:11:16;;;;;;;7.73;7.03;;;16.80;1.00;;;;;;8360071;28;20181;-66
2022/09/05 07:15:35;;;;;;;7.77;6.50;;;17.10;99.90;;;;;;8360695;28;20182;-68
2022/09/05 07:19:47;;;;;;;9.07;7.67;;;17.30;99.90;;;;;;8353743;28;20205;-69
2022/09/05 07:23:56;;;;;;;11.10;8.80;;;17.50;7.40;;;;;;8344001;28;20190;-66
2022/09/05 07:28:19;;;;;;;12.80;9.47;;;17.60;26.30;;;;;;8343198;28;20210;-67
2022/09/05 07:32:22;;;;;;;11.57;9.23;;;17.90;1.00;;;;;;8333717;28;20201;-68
2022/09/05 07:36:29;;;;;;;13.87;9.57;;;18.20;99.90;;;;;;8341982;28;20278;-68
2022/09/05 07:40:35;;;;;;;15.20;10.53;;;18.40;99.90;;;;;;8346296;28;20185;-68
2022/09/05 07:44:40;;;;;;;11.03;8.40;;;18.60;99.90;;;;;;8345581;28;20189;-68
2022/09/05 07:49:09;;;;;;;10.57;9.33;;;18.70;99.90;;;;;;8362206;28;20217;-67
2022/09/05 07:53:13;;;;;;;8.93;7.80;;;18.50;93.40;;;;;;8347096;28;20188;-68
2022/09/05 07:57:21;;;;;;;11.57;7.60;;;18.50;99.90;;;;;;8346789;28;20239;-67
2022/09/05 08:01:21;;;;;;;9.57;8.03;;;18.70;99.90;;;;;;8361127;28;20196;-67
2022/09/05 08:05:25;;;;;;;12.87;8.60;;;18.80;99.90;;;;;;8342583;28;20293;-68
2022/09/05 08:09:30;;;;;;;9.07;7.20;;;19.00;1.00;;;;;;8346312;28;20186;-66
2022/09/05 08:13:41;;;;;;;10.53;8.00;;;19.20;1.00;;;;;;8348336;28;20201;-66
2022/09/05 08:17:51;;;;;;;8.63;7.70;;;19.30;1.00;;;;;;8348437;28;20190;-67
2022/09/05 08:21:54;;;;;;;8.70;7.27;;;19.40;1.00;;;;;;8350402;28;20304;-67
2022/09/05 08:26:07;;;;;;;10.67;8.77;;;19.60;1.00;;;;;;8352567;28;20202;-67
2022/09/05 08:30:09;;;;;;;11.20;8.07;;;19.60;1.00;;;;;;8351494;28;20193;-67
2022/09/05 08:34:17;;;;;;;10.43;8.30;;;19.50;1.00;;;;;;8365324;28;20181;-65
2022/09/05 08:38:18;;;;;;;11.77;7.50;;;19.50;1.00;;;;;;8382325;28;20216;-71
2022/09/05 08:42:45;;;;;;;10.07;9.00;;;19.70;1.00;;;;;;8351337;28;20186;-67
2022/09/05 08:46:54;;;;;;;10.77;8.40;;;19.90;99.90;;;;;;8347329;28;20232;-68
2022/09/05 08:51:27;;;;;;;11.30;8.40;;;20.40;99.90;;;;;;8364814;28;20178;-68
2022/09/05 08:55:34;;;;;;;12.73;9.73;;;20.80;99.90;;;;;;8350039;28;20502;-68
2022/09/05 09:00:00;;;;;;;11.20;8.43;;;21.30;99.90;;;;;;8364888;28;20192;-65
2022/09/05 09:04:06;;;;;;;10.50;8.27;;;21.50;99.90;;;;;;8345615;28;20185;-67
2022/09/05 09:08:45;;;;;;;13.30;7.87;;;21.40;99.90;;;;;;8351355;28;20300;-65
2022/09/05 09:12:58;;;;;;;8.73;7.83;;;21.30;99.90;;;;;;8348250;28;20225;-65
2022/09/05 09:17:27;;;;;;;11.93;7.03;;;20.90;99.90;;;;;;8341238;28;20194;-68
2022/09/05 09:21:45;;;;;;;8.43;5.60;;;20.80;99.90;;;;;;8340762;28;20210;-64
2022/09/05 09:26:07;;;;;;;8.20;5.90;;;21.00;99.90;;;;;;8340546;28;20218;-67
2022/09/05 09:30:08;;;;;;;7.90;4.60;;;21.30;99.90;;;;;;8349086;28;20182;-70
2022/09/05 09:34:24;;;;;;;8.80;5.83;;;21.50;99.90;;;;;;8350644;28;20214;-69
2022/09/05 09:38:30;;;;;;;7.57;4.67;;;21.50;99.90;;;;;;8348775;28;20197;-64
2022/09/05 09:42:53;;;;;;;5.90;4.13;;;21.60;99.90;;;;;;8342840;28;20186;-66
2022/09/05 09:46:54;;;;;;;5.93;4.10;;;21.90;99.90;;;;;;8347611;28;20300;-66
2022/09/05 09:51:10;;;;;;;6.37;4.30;;;22.00;99.90;;;;;;8362815;28;20189;-63
2022/09/05 09:55:37;;;;;;;6.23;5.20;;;22.00;99.90;;;;;;8338871;28;20603;-66
2022/09/05 10:00:06;;;;;;;6.40;3.60;;;21.90;60.80;;;;;;8348211;28;20196;-64
2022/09/05 10:04:32;;;;;;;7.83;3.77;;;21.80;95.40;;;;;;8346639;28;20231;-68
2022/09/05 10:09:14;;;;;;;4.67;4.10;;;22.00;64.70;;;;;;8338758;28;20205;-66
2022/09/05 10:13:53;;;;;;;9.50;4.47;;;22.10;58.20;;;;;;8347706;28;20202;-67
2022/09/05 10:18:19;;;;;;;5.73;3.93;;;22.10;58.90;;;;;;8329503;28;20266;-65
2022/09/05 10:22:35;;;;;;;5.17;4.17;;;22.20;51.80;;;;;;8338044;28;20698;-64
2022/09/05 10:26:47;;;;;;;9.03;4.20;;;22.30;29.70;;;;;;8348492;28;20209;-67
2022/09/05 10:31:03;;;;;;;10.03;4.30;;;22.20;90.70;;;;;;8347027;28;20178;-64
2022/09/05 10:35:17;;;;;;;6.73;4.07;;;22.30;32.80;;;;;;8347923;28;20217;-69
2022/09/05 10:39:34;;;;;;;6.40;3.93;;;22.40;37.20;;;;;;8358987;28;20327;-68
2022/09/05 10:43:51;;;;;;;7.70;4.23;;;22.50;27.30;;;;;;8378804;28;20183;-67
2022/09/05 10:48:09;;;;;;;4.47;3.80;;;22.50;33.00;;;;;;8364693;28;20308;-70
2022/09/05 10:52:38;;;;;;;4.50;4.10;;;22.60;37.10;;;;;;8336192;28;20320;-68
2022/09/05 10:56:45;;;;;;;5.07;4.03;;;22.50;28.60;;;;;;8347603;28;20186;-67
2022/09/05 11:01:11;;;;;;;4.40;3.60;;;22.50;11.80;;;;;;8346602;28;20209;-72
2022/09/05 11:05:25;;;;;;;4.50;3.50;;;22.50;19.80;;;;;;8341136;28;20273;-64
2022/09/05 11:10:05;;;;;;;3.40;2.33;;;22.40;23.20;;;;;;8336559;28;20228;-66
2022/09/05 11:14:29;;;;;;;4.80;2.63;;;22.50;1.00;;;;;;8332325;28;20210;-66
2022/09/05 11:18:45;;;;;;;3.97;2.60;;;22.50;1.00;;;;;;8346253;28;20194;-66
2022/09/05 11:22:48;;;;;;;3.33;2.90;;;22.60;1.00;;;;;;8346419;28;20186;-67
2022/09/05 11:26:54;;;;;;;5.33;3.53;;;22.60;1.00;;;;;;8344687;28;21174;-67
2022/09/05 11:30:57;;;;;;;5.03;3.20;;;22.60;1.00;;;;;;8345780;28;21682;-66
2022/09/05 11:35:24;;;;;;;4.30;3.30;;;22.60;1.00;;;;;;8345545;28;20411;-67
2022/09/05 11:39:50;;;;;;;4.17;3.50;;;22.60;1.00;;;;;;8340816;28;20186;-67
2022/09/05 11:44:03;;;;;;;3.47;2.83;;;22.70;1.00;;;;;;8344548;28;20208;-69
2022/09/05 11:48:18;;;;;;;4.23;3.20;;;22.60;1.00;;;;;;8336206;28;20201;-68
2022/09/05 11:52:50;;;;;;;4.00;3.20;;;22.70;1.00;;;;;;8343919;28;20185;-65
2022/09/05 11:57:01;;;;;;;4.83;3.30;;;22.60;1.00;;;;;;8344322;28;20248;-67
2022/09/05 12:01:26;;;;;;;6.20;4.80;;;22.70;1.00;;;;;;8343919;28;20186;-67
2022/09/05 12:06:06;;;;;;;5.07;4.13;;;22.80;1.00;;;;;;8344353;28;20269;-67
2022/09/05 12:10:45;;;;;;;7.33;3.40;;;22.90;1.00;;;;;;8348966;28;20268;-65
2022/09/05 12:15:20;;;;;;;8.00;3.40;;;22.90;1.00;;;;;;8339449;28;20590;-66
2022/09/05 12:20:02;;;;;;;3.77;3.40;;;23.00;1.00;;;;;;8339379;28;20193;-66
2022/09/05 12:24:45;;;;;;;10.67;4.90;;;23.10;1.00;;;;;;8338022;28;20212;-67
2022/09/05 12:29:09;;;;;;;10.17;5.30;;;23.30;1.00;;;;;;8343389;28;20249;-65
2022/09/05 12:33:13;;;;;;;6.23;4.20;;;23.30;1.00;;;;;;8342576;28;20181;-64
2022/09/05 12:37:36;;;;;;;4.10;3.40;;;23.40;1.00;;;;;;8358632;28;20190;-67
2022/09/05 12:41:49;;;;;;;8.27;4.53;;;23.70;1.00;;;;;;8340518;28;20193;-66
2022/09/05 12:46:12;;;;;;;12.97;7.83;;;23.80;1.00;;;;;;8346153;28;20213;-65
2022/09/05 12:50:18;;;;;;;14.57;8.27;;;23.70;1.00;;;;;;8347315;28;20245;-68
2022/09/05 12:54:32;;;;;;;10.10;5.70;;;23.60;1.00;;;;;;8341568;28;20186;-67
2022/09/05 12:58:36;;;;;;;13.27;5.83;;;23.70;1.00;;;;;;8365134;28;20204;-64
2022/09/05 13:02:43;;;;;;;6.57;4.13;;;23.70;1.00;;;;;;8345863;28;20194;-66
2022/09/05 13:06:55;;;;;;;5.97;3.63;;;23.60;1.00;;;;;;8348710;28;20210;-64
2022/09/05 13:10:57;;;;;;;4.70;3.77;;;23.60;1.00;;;;;;8352303;28;20185;-67
2022/09/05 13:15:07;;;;;;;4.87;3.73;;;23.50;1.00;;;;;;8349444;28;20269;-67
2022/09/05 13:19:32;;;;;;;5.30;2.87;;;23.50;1.00;;;;;;8366622;28;20227;-71
2022/09/05 13:23:46;;;;;;;4.40;3.00;;;23.50;1.00;;;;;;8346525;28;20188;-67
2022/09/05 13:27:55;;;;;;;3.87;3.47;;;23.40;1.00;;;;;;8349423;28;20503;-67
2022/09/05 13:32:01;;;;;;;4.27;3.00;;;23.60;1.00;;;;;;8359629;28;20174;-66
2022/09/05 13:36:04;;;;;;;5.87;3.13;;;23.50;1.00;;;;;;8358595;28;20236;-67
2022/09/05 13:40:09;;;;;;;4.70;2.80;;;23.60;1.00;;;;;;8349528;28;20186;-66
2022/09/05 13:44:20;;;;;;;2.73;2.43;;;23.70;1.00;;;;;;8337134;28;20479;-65
2022/09/05 13:48:46;;;;;;;5.07;2.87;;;23.70;1.00;;;;;;8348546;28;20202;-68
2022/09/05 13:53:18;;;;;;;3.93;2.80;;;23.80;1.00;;;;;;8379429;28;20586;-67
2022/09/05 13:57:22;;;;;;;3.20;2.33;;;23.90;1.00;;;;;;8347056;28;20195;-65
2022/09/05 14:01:23;;;;;;;3.63;2.80;;;23.90;1.00;;;;;;8362165;28;20186;-67
2022/09/05 14:05:33;;;;;;;4.77;2.83;;;23.90;1.00;;;;;;8351366;28;20205;-63
2022/09/05 14:09:43;;;;;;;3.10;2.40;;;23.90;1.00;;;;;;8348522;28;20290;-64
2022/09/05 14:14:09;;;;;;;3.87;2.50;;;23.90;1.00;;;;;;8348473;28;20484;-66
2022/09/05 14:23:07;;;;;;;3.17;2.27;;;24.00;1.00;;;;;;8346213;28;20248;-64
2022/09/05 14:27:19;;;;;;;3.77;2.50;;;24.00;1.00;;;;;;8368174;28;20231;-63
2022/09/05 14:31:25;;;;;;;4.53;2.80;;;23.90;1.00;;;;;;8347036;28;20182;-64
2022/09/05 14:35:47;;;;;;;5.10;3.33;;;23.70;1.00;;;;;;8347406;28;20278;-67
2022/09/05 14:40:18;;;;;;;12.23;6.47;;;23.70;1.00;;;;;;8344631;28;20519;-66
2022/09/05 14:44:25;;;;;;;11.27;6.37;;;23.60;1.00;;;;;;8364944;28;20178;-67
2022/09/05 14:48:53;;;;;;;9.93;6.30;;;23.60;1.00;;;;;;8341407;28;20206;-64
2022/09/05 14:53:04;;;;;;;2.93;2.40;;;23.60;1.00;;;;;;8337779;28;20189;-66
2022/09/05 14:57:09;;;;;;;3.47;2.73;;;23.60;1.00;;;;;;8347802;28;20185;-67
2022/09/05 15:01:14;;;;;;;5.10;2.87;;;23.90;1.00;;;;;;8357914;28;20500;-66
2022/09/05 15:05:27;;;;;;;4.03;3.57;;;24.00;1.00;;;;;;8352332;28;20244;-68
2022/09/05 15:09:29;;;;;;;2.93;2.40;;;24.00;1.00;;;;;;8348915;28;20178;-68
2022/09/05 15:13:30;;;;;;;4.00;2.83;;;24.20;1.00;;;;;;8345177;28;20198;-66
2022/09/05 15:17:31;;;;;;;10.27;2.93;;;24.30;1.00;;;;;;8347693;28;20307;-67
2022/09/05 15:21:36;;;;;;;6.27;3.53;;;24.20;1.00;;;;;;8345586;28;20201;-68
2022/09/05 15:25:47;;;;;;;7.43;5.33;;;24.00;1.00;;;;;;8347636;28;20196;-67
2022/09/05 15:29:55;;;;;;;7.00;4.73;;;23.80;1.00;;;;;;8355476;28;20268;-66
2022/09/05 15:34:15;;;;;;;6.33;2.60;;;23.60;1.00;;;;;;8343355;28;20178;-64
2022/09/05 15:38:27;;;;;;;3.80;2.40;;;23.40;1.00;;;;;;8346324;28;20185;-67
2022/09/05 15:42:36;;;;;;;2.33;2.13;;;23.40;1.00;;;;;;8339545;28;20170;-67
2022/09/05 15:46:37;;;;;;;4.13;2.40;;;23.40;1.00;;;;;;8344230;28;20283;-67
2022/09/05 15:50:54;;;;;;;3.87;2.40;;;23.40;1.00;;;;;;8346420;28;20189;-67
2022/09/05 15:55:14;;;;;;;3.43;2.43;;;23.40;1.00;;;;;;8344567;28;20217;-66
2022/09/05 15:59:15;;;;;;;4.00;2.37;;;23.30;1.00;;;;;;8353505;28;20182;-66
2022/09/05 16:03:17;;;;;;;2.83;2.53;;;23.00;1.00;;;;;;8346084;28;20209;-67
2022/09/05 16:07:22;;;;;;;3.63;2.20;;;22.80;1.00;;;;;;8344758;28;20210;-67
2022/09/05 16:11:26;;;;;;;3.67;2.30;;;22.70;1.00;;;;;;8345221;28;20213;-68
2022/09/05 16:15:36;;;;;;;4.20;2.20;;;22.70;1.00;;;;;;8344519;28;20182;-66
2022/09/05 16:19:50;;;;;;;3.17;2.57;;;22.60;1.00;;;;;;8347613;28;20292;-67
2022/09/05 16:23:58;;;;;;;2.93;2.27;;;22.50;1.00;;;;;;8346433;28;20729;-67
2022/09/05 16:28:03;;;;;;;2.40;2.20;;;22.40;1.00;;;;;;8342383;28;20285;-66
2022/09/05 16:32:08;;;;;;;3.57;2.90;;;22.20;1.00;;;;;;8360370;28;20192;-66
2022/09/05 16:36:11;;;;;;;3.73;2.37;;;22.00;1.00;;;;;;8369895;28;20213;-65
2022/09/05 16:40:27;;;;;;;4.10;2.30;;;22.00;1.00;;;;;;8352419;28;20200;-65
2022/09/05 16:44:37;;;;;;;3.07;2.10;;;21.90;1.00;;;;;;8347984;28;20182;-65
2022/09/05 16:49:01;;;;;;;5.00;2.50;;;21.80;1.00;;;;;;8362038;28;20316;-70
2022/09/05 16:53:15;;;;;;;4.10;2.40;;;21.70;1.00;;;;;;8381552;28;20235;-65
2022/09/05 16:57:18;;;;;;;2.73;2.17;;;21.50;1.00;;;;;;8348606;28;20182;-65
2022/09/05 17:01:31;;;;;;;2.50;2.13;;;21.20;1.00;;;;;;8353139;28;20189;-67
2022/09/05 17:05:47;;;;;;;4.83;2.40;;;21.00;1.00;;;;;;8350000;28;20285;-66
2022/09/05 17:09:48;;;;;;;3.97;2.63;;;20.80;1.00;;;;;;8352732;28;20529;-66
2022/09/05 17:13:53;;;;;;;2.90;2.30;;;20.50;3.80;;;;;;8341880;28;20266;-67
2022/09/05 17:18:10;;;;;;;6.40;2.60;;;20.30;6.00;;;;;;8354336;28;20186;-67
2022/09/05 17:22:27;;;;;;;5.27;2.33;;;20.10;20.70;;;;;;8349929;28;20202;-67
2022/09/05 17:26:31;;;;;;;2.50;2.30;;;19.90;33.30;;;;;;8357741;28;20206;-72
2022/09/05 17:30:44;;;;;;;3.63;2.57;;;19.70;45.50;;;;;;8350445;28;20819;-66
2022/09/05 17:34:48;;;;;;;4.23;2.83;;;19.50;66.20;;;;;;8361485;28;20186;-66
2022/09/05 17:38:49;;;;;;;5.50;2.90;;;19.30;91.60;;;;;;8351288;28;20202;-66
2022/09/05 17:42:58;;;;;;;4.63;3.77;;;19.10;99.90;;;;;;8350560;28;20201;-67
2022/09/05 17:47:09;;;;;;;4.90;4.40;;;18.90;99.90;;;;;;8365606;28;20304;-66
2022/09/05 17:51:10;;;;;;;4.90;4.20;;;18.60;99.90;;;;;;8338460;28;20197;-68
2022/09/05 17:55:15;;;;;;;4.67;4.07;;;18.40;99.90;;;;;;8347764;28;20189;-67
2022/09/05 17:59:19;;;;;;;6.40;4.43;;;18.20;99.90;;;;;;8349285;28;20231;-67
2022/09/05 18:03:46;;;;;;;7.50;4.70;;;18.00;99.90;;;;;;8336940;28;20182;-67
2022/09/05 18:07:54;;;;;;;5.37;4.50;;;17.80;99.90;;;;;;8348923;28;20268;-66
2022/09/05 18:12:22;;;;;;;6.03;4.43;;;17.60;99.90;;;;;;8345023;28;20205;-67
2022/09/05 18:16:42;;;;;;;5.87;4.63;;;17.40;99.90;;;;;;8347909;28;20193;-68
2022/09/05 18:20:54;;;;;;;6.23;5.17;;;17.30;99.90;;;;;;8344880;28;20599;-68
2022/09/05 18:25:35;;;;;;;5.77;4.43;;;17.00;99.90;;;;;;8364804;28;20193;-68
2022/09/05 18:29:40;;;;;;;7.17;5.50;;;16.70;1.00;;;;;;8299587;28;20218;-68
2022/09/05 18:34:21;;;;;;;7.73;6.43;;;16.50;1.00;;;;;;8345032;28;20622;-68
2022/09/05 18:38:27;;;;;;;6.07;4.90;;;16.40;1.00;;;;;;8352506;28;20189;-68
2022/09/05 18:42:29;;;;;;;5.30;4.50;;;16.10;1.00;;;;;;8345208;28;20197;-68
2022/09/05 18:46:42;;;;;;;4.40;4.00;;;15.90;57.70;;;;;;8347169;28;20240;-68
2022/09/05 18:50:47;;;;;;;5.40;3.93;;;15.70;99.90;;;;;;8354988;28;20186;-68
2022/09/05 18:54:52;;;;;;;6.27;4.67;;;15.60;99.90;;;;;;8344403;28;20273;-68
2022/09/05 18:59:23;;;;;;;4.77;3.67;;;15.40;99.90;;;;;;8343467;28;20272;-69
2022/09/05 19:03:28;;;;;;;5.73;2.77;;;15.20;99.90;;;;;;8352166;28;20225;-68
2022/09/05 19:07:50;;;;;;;3.50;3.20;;;14.90;99.90;;;;;;8347526;28;20220;-69
2022/09/05 19:12:07;;;;;;;4.80;3.37;;;14.70;1.00;;;;;;8354988;28;20248;-68
2022/09/05 19:16:10;;;;;;;5.20;3.87;;;14.50;1.00;;;;;;8347133;28;20189;-68
2022/09/05 19:20:19;;;;;;;4.47;3.93;;;14.40;22.60;;;;;;8377700;28;20206;-68
2022/09/05 19:24:20;;;;;;;4.43;3.67;;;14.20;99.90;;;;;;8351682;28;20183;-68
2022/09/05 19:28:25;;;;;;;5.23;4.33;;;14.10;99.90;;;;;;8342511;28;20537;-68
2022/09/05 19:32:27;;;;;;;4.50;4.10;;;14.00;99.90;;;;;;8345437;28;20196;-68
2022/09/05 19:36:34;;;;;;;5.57;4.77;;;14.10;1.00;;;;;;8344877;28;20273;-69
2022/09/05 19:40:43;;;;;;;6.00;4.00;;;14.20;99.90;;;;;;8345841;28;20266;-68
2022/09/05 19:45:05;;;;;;;4.30;3.90;;;14.10;99.90;;;;;;8342890;28;20190;-68
2022/09/05 19:49:10;;;;;;;4.23;3.77;;;14.10;99.90;;;;;;8346277;28;20213;-69
2022/09/05 19:53:14;;;;;;;5.03;3.97;;;14.20;99.90;;;;;;8359651;28;20193;-68
2022/09/05 19:57:18;;;;;;;6.13;3.97;;;14.20;11.30;;;;;;8358959;28;20231;-68
2022/09/05 20:01:21;;;;;;;5.83;4.10;;;14.30;1.00;;;;;;8343988;28;20201;-68
2022/09/05 20:05:23;;;;;;;5.20;3.13;;;14.40;1.00;;;;;;8338625;28;20663;-69
2022/09/05 20:09:26;;;;;;;5.00;3.27;;;14.40;99.90;;;;;;8343227;28;20280;-68
2022/09/05 20:13:27;;;;;;;4.43;3.67;;;14.40;99.90;;;;;;8343332;28;20221;-68
2022/09/05 20:17:30;;;;;;;4.90;4.07;;;14.40;99.90;;;;;;8341127;28;20192;-72
2022/09/05 20:21:34;;;;;;;5.73;3.87;;;14.40;99.90;;;;;;8303802;28;1324507;-68
2022/09/05 20:25:41;;;;;;;3.87;3.07;;;14.40;99.90;;;;;;8360696;28;20197;-68
2022/09/05 20:29:58;;;;;;;4.40;3.47;;;14.30;99.90;;;;;;8343651;28;20194;-68
2022/09/05 20:34:13;;;;;;;5.60;4.03;;;14.20;99.90;;;;;;8344829;28;20182;-68
2022/09/05 20:38:50;;;;;;;5.20;3.83;;;14.10;99.90;;;;;;8342155;28;20190;-69
2022/09/05 20:42:51;;;;;;;5.73;4.40;;;14.00;99.90;;;;;;8346707;28;20275;-68
2022/09/05 20:47:04;;;;;;;5.27;3.90;;;14.00;99.90;;;;;;8338110;28;20214;-68
2022/09/05 20:51:09;;;;;;;5.50;3.67;;;14.00;99.90;;;;;;8337249;28;20178;-70
2022/09/05 20:55:15;;;;;;;4.97;3.67;;;14.00;99.90;;;;;;8343713;28;20414;-67
2022/09/05 20:59:40;;;;;;;3.63;3.27;;;14.00;99.90;;;;;;8342020;28;20185;-68
2022/09/05 21:03:53;;;;;;;3.63;3.07;;;14.00;99.90;;;;;;8337657;28;20185;-68
2022/09/05 21:08:19;;;;;;;5.60;3.60;;;13.90;99.90;;;;;;8343431;28;20263;-68
2022/09/05 21:12:28;;;;;;;3.73;3.27;;;13.80;99.90;;;;;;8339864;28;20353;-68
2022/09/05 21:16:35;;;;;;;3.33;2.80;;;13.80;99.90;;;;;;8342015;28;20174;-68
2022/09/05 21:20:38;;;;;;;4.77;2.90;;;13.70;99.90;;;;;;8349232;28;20197;-68
2022/09/05 21:24:41;;;;;;;4.23;3.23;;;13.60;99.90;;;;;;8366200;28;20196;-68
2022/09/05 21:29:12;;;;;;;3.20;2.90;;;13.60;1.00;;;;;;8346838;28;20205;-68
2022/09/05 21:33:19;;;;;;;4.33;3.40;;;13.60;1.00;;;;;;8348926;28;20182;-69
2022/09/05 21:37:19;;;;;;;3.70;3.33;;;13.60;1.00;;;;;;8347299;28;20185;-68
2022/09/05 21:41:20;;;;;;;3.80;3.23;;;13.50;1.00;;;;;;8345261;28;20268;-68
2022/09/05 21:45:22;;;;;;;3.40;3.10;;;13.40;94.20;;;;;;8353784;28;20177;-67
2022/09/05 21:49:24;;;;;;;3.57;3.27;;;13.30;99.90;;;;;;8349391;28;20214;-68
2022/09/05 21:53:32;;;;;;;5.13;3.43;;;13.20;99.90;;;;;;8349226;28;20186;-69
2022/09/05 21:57:36;;;;;;;3.40;2.93;;;13.10;99.90;;;;;;8348046;28;20220;-68
2022/09/05 22:01:38;;;;;;;5.30;3.67;;;13.00;1.00;;;;;;8348614;28;20251;-67
2022/09/05 22:05:39;;;;;;;3.70;3.30;;;12.80;2.70;;;;;;8344831;28;20186;-67
2022/09/05 22:09:40;;;;;;;4.33;3.30;;;12.70;99.90;;;;;;8348048;28;20206;-69
2022/09/05 22:13:41;;;;;;;3.87;3.37;;;12.70;99.90;;;;;;8350190;28;20214;-69
2022/09/05 22:17:42;;;;;;;3.53;3.23;;;12.60;99.90;;;;;;8346597;28;20246;-69